createdAt,value
2023-03-10T00:00:47.739Z,98974.86
2023-03-10T00:01:57.699Z,98975.61
2023-03-10T00:03:00.458Z,98981.20
2023-03-10T00:04:03.418Z,98972.63
2023-03-10T00:05:06.593Z,98976.25
2023-03-10T00:06:10.685Z,98981.70
2023-03-10T00:07:13.530Z,98973.06
2023-03-10T00:08:16.274Z,98970.73
2023-03-10T00:09:19.004Z,98972.30
2023-03-10T00:10:21.797Z,98975.44
2023-03-10T00:11:24.530Z,98973.52
2023-03-10T00:12:28.075Z,98976.55
2023-03-10T00:13:30.949Z,98978.17
2023-03-10T00:14:33.701Z,98978.14
2023-03-10T00:15:36.516Z,98970.01
2023-03-10T00:16:39.512Z,98966.90
2023-03-10T00:17:42.423Z,98957.85
2023-03-10T00:18:46.454Z,98958.09
2023-03-10T00:19:49.269Z,98961.36
2023-03-10T00:20:52.652Z,98954.76
2023-03-10T00:21:55.411Z,98952.64
2023-03-10T00:22:58.184Z,98953.86
2023-03-10T00:24:01.538Z,98949.90
2023-03-10T00:25:04.572Z,98953.73
2023-03-10T00:26:07.375Z,98956.89
2023-03-10T00:27:10.164Z,98948.18
2023-03-10T00:28:12.912Z,98941.65
2023-03-10T00:29:15.891Z,98935.83
2023-03-10T00:30:18.721Z,98941.53
2023-03-10T00:31:23.169Z,98939.05
2023-03-10T00:32:26.408Z,98934.52
2023-03-10T00:33:30.904Z,98943.73
2023-03-10T00:34:33.675Z,98940.65
2023-03-10T00:35:36.473Z,98946.63
2023-03-10T00:36:42.281Z,98952.20
2023-03-10T00:37:45.236Z,98951.67
2023-03-10T00:38:48.703Z,98944.81
2023-03-10T00:39:52.512Z,98942.85
2023-03-10T00:41:02.183Z,98937.52
2023-03-10T00:42:05.250Z,98932.93
2023-03-10T00:43:08.051Z,98928.03
2023-03-10T00:44:11.598Z,98928.34
2023-03-10T00:45:14.415Z,98922.40
2023-03-10T00:46:17.917Z,98919.99
2023-03-10T00:47:20.687Z,98919.19
2023-03-10T00:48:23.727Z,98917.67
2023-03-10T00:49:26.554Z,98919.83
2023-03-10T00:50:29.294Z,98911.83
2023-03-10T00:51:32.094Z,98905.31
2023-03-10T00:52:34.870Z,98912.35
2023-03-10T00:53:38.570Z,98907.59
2023-03-10T00:54:42.133Z,98907.13
2023-03-10T00:55:45.034Z,98906.86
2023-03-10T00:56:47.783Z,98908.91
2023-03-10T00:57:50.680Z,98904.59
2023-03-10T00:58:54.729Z,98908.27
2023-03-10T00:59:57.490Z,98910.86
2023-03-10T01:01:00.713Z,98907.46
2023-03-10T01:02:03.796Z,98908.05
2023-03-10T01:03:07.162Z,98912.34
2023-03-10T01:04:12.973Z,98907.63
2023-03-10T01:05:15.870Z,98910.99
2023-03-10T01:06:19.067Z,98906.55
2023-03-10T01:07:21.998Z,98907.58
2023-03-10T01:08:24.754Z,98908.58
2023-03-10T01:09:27.607Z,98910.88
2023-03-10T01:10:30.353Z,98904.64
2023-03-10T01:11:33.618Z,98900.88
2023-03-10T01:12:36.395Z,98899.21
2023-03-10T01:13:41.033Z,98897.78
2023-03-10T01:14:44.109Z,98898.13
2023-03-10T01:15:50.975Z,98888.95
2023-03-10T01:16:53.907Z,98890.45
2023-03-10T01:17:56.800Z,98888.63
2023-03-10T01:18:59.638Z,98886.46
2023-03-10T01:20:07.014Z,98892.60
2023-03-10T01:21:14.520Z,98888.56
2023-03-10T01:22:17.296Z,98886.94
2023-03-10T01:23:21.467Z,98877.95
2023-03-10T01:24:25.712Z,98884.40
2023-03-10T01:25:28.939Z,98874.91
2023-03-10T01:26:32.128Z,98881.70
2023-03-10T01:27:34.902Z,98877.16
2023-03-10T01:28:37.764Z,98876.96
2023-03-10T01:29:40.636Z,98866.77
2023-03-10T01:30:43.619Z,98874.48
2023-03-10T01:31:50.131Z,98865.02
2023-03-10T01:32:53.013Z,98868.45
2023-03-10T01:33:55.827Z,98863.80
2023-03-10T01:34:58.588Z,98867.05
2023-03-10T01:36:02.034Z,98863.15
2023-03-10T01:37:04.961Z,98861.23
2023-03-10T01:38:08.486Z,98866.74
2023-03-10T01:39:11.282Z,98860.64
2023-03-10T01:40:18.705Z,98863.40
2023-03-10T01:41:22.339Z,98857.23
2023-03-10T01:42:25.088Z,98855.27
2023-03-10T01:43:29.032Z,98854.16
2023-03-10T01:44:31.836Z,98852.50
2023-03-10T01:45:34.578Z,98853.66
2023-03-10T01:46:37.699Z,98853.38
2023-03-10T01:47:43.894Z,98855.51
2023-03-10T01:48:46.710Z,98853.30
2023-03-10T01:49:49.486Z,98854.14
2023-03-10T01:50:54.149Z,98849.15
2023-03-10T01:52:00.027Z,98849.85
2023-03-10T01:53:03.242Z,98844.55
2023-03-10T01:54:09.406Z,98845.16
2023-03-10T01:55:15.339Z,98841.86
2023-03-10T01:56:18.362Z,98836.17
2023-03-10T01:57:23.515Z,98833.77
2023-03-10T01:58:29.969Z,98830.31
2023-03-10T01:59:33.467Z,98832.92
2023-03-10T02:00:36.791Z,98834.59
2023-03-10T02:01:39.628Z,98826.66
2023-03-10T02:03:03.253Z,98829.63
2023-03-10T02:04:14.150Z,98829.40
2023-03-10T02:05:18.949Z,98823.83
2023-03-10T02:06:22.013Z,98819.02
2023-03-10T02:07:29.084Z,98816.23
2023-03-10T02:08:34.987Z,98815.79
2023-03-10T02:09:40.153Z,98814.69
2023-03-10T02:10:42.947Z,98816.27
2023-03-10T02:11:47.105Z,98807.94
2023-03-10T02:12:49.822Z,98806.19
2023-03-10T02:13:53.147Z,98806.42
2023-03-10T02:14:57.075Z,98803.39
2023-03-10T02:16:01.604Z,98802.73
2023-03-10T02:17:09.066Z,98799.32
2023-03-10T02:18:13.435Z,98793.77
2023-03-10T02:19:25.776Z,98792.38
2023-03-10T02:20:47.207Z,98781.88
2023-03-10T02:21:58.678Z,98774.42
2023-03-10T02:23:01.758Z,98780.73
2023-03-10T02:24:10.392Z,98771.14
2023-03-10T02:25:42.240Z,98766.31
2023-03-10T02:26:51.525Z,98766.91
2023-03-10T02:27:57.953Z,98763.66
2023-03-10T02:29:02.806Z,98759.73
2023-03-10T02:30:11.273Z,98752.90
2023-03-10T02:31:14.949Z,98753.68
2023-03-10T02:32:18.793Z,98755.48
2023-03-10T02:33:24.268Z,98755.60
2023-03-10T02:34:28.113Z,98758.63
2023-03-10T02:35:31.243Z,98761.61
2023-03-10T02:36:37.666Z,98756.98
2023-03-10T02:37:40.535Z,98752.41
2023-03-10T02:38:43.341Z,98747.27
2023-03-10T02:39:46.354Z,98749.18
2023-03-10T02:40:52.343Z,98746.33
2023-03-10T02:41:58.031Z,98742.56
2023-03-10T02:43:02.714Z,98751.23
2023-03-10T02:44:07.975Z,98751.68
2023-03-10T02:45:10.896Z,98751.07
2023-03-10T02:46:14.642Z,98749.91
2023-03-10T02:47:18.594Z,98746.56
2023-03-10T02:48:28.362Z,98742.59
2023-03-10T02:49:32.435Z,98736.67
2023-03-10T02:50:36.934Z,98736.27
2023-03-10T02:51:41.570Z,98735.21
2023-03-10T02:52:50.661Z,98733.61
2023-03-10T02:53:53.570Z,98725.97
2023-03-10T02:54:56.597Z,98720.66
2023-03-10T02:56:00.159Z,98722.26
2023-03-10T02:57:03.729Z,98724.91
2023-03-10T02:58:07.041Z,98728.83
2023-03-10T02:59:10.130Z,98729.80
2023-03-10T03:00:16.314Z,98727.91
2023-03-10T03:01:19.211Z,98721.36
2023-03-10T03:02:22.028Z,98720.36
2023-03-10T03:03:25.023Z,98717.98
2023-03-10T03:04:28.975Z,98712.10
2023-03-10T03:08:25.382Z,98712.05
2023-03-10T03:09:28.430Z,98706.09
2023-03-10T03:10:33.073Z,98708.13
2023-03-10T03:11:35.961Z,98708.98
2023-03-10T03:12:39.803Z,98709.25
2023-03-10T03:13:42.910Z,98705.00
2023-03-10T03:14:45.857Z,98701.89
2023-03-10T03:15:50.624Z,98695.89
2023-03-10T03:16:53.798Z,98692.70
2023-03-10T03:17:58.702Z,98691.13
2023-03-10T03:19:02.084Z,98692.28
2023-03-10T03:20:14.128Z,98687.66
2023-03-10T03:21:17.732Z,98689.58
2023-03-10T03:22:21.715Z,98692.86
2023-03-10T03:23:24.862Z,98682.16
2023-03-10T03:24:27.827Z,98676.00
2023-03-10T03:25:31.027Z,98670.00
2023-03-10T03:26:34.516Z,98668.98
2023-03-10T03:27:43.947Z,98667.10
2023-03-10T03:28:47.221Z,98667.71
2023-03-10T03:29:50.456Z,98662.15
2023-03-10T03:30:53.456Z,98659.42
2023-03-10T03:31:56.361Z,98655.71
2023-03-10T03:33:03.706Z,98657.46
2023-03-10T03:34:07.416Z,98657.85
2023-03-10T03:35:21.513Z,98653.04
2023-03-10T03:36:24.499Z,98656.92
2023-03-10T03:37:27.570Z,98654.00
2023-03-10T03:38:32.726Z,98650.59
2023-03-10T03:39:35.548Z,98646.13
2023-03-10T03:40:41.355Z,98637.86
2023-03-10T03:41:44.601Z,98639.89
2023-03-10T03:42:49.055Z,98639.85
2023-03-10T03:43:52.346Z,98636.13
2023-03-10T03:44:55.121Z,98629.42
2023-03-10T03:45:58.669Z,98629.83
2023-03-10T03:47:01.704Z,98628.86
2023-03-10T03:48:05.164Z,98624.39
2023-03-10T03:49:08.946Z,98616.95
2023-03-10T03:50:13.327Z,98616.02
2023-03-10T03:51:16.451Z,98616.98
2023-03-10T03:52:19.612Z,98611.19
2023-03-10T03:53:22.774Z,98607.83
2023-03-10T03:54:25.601Z,98603.91
2023-03-10T03:55:29.254Z,98610.83
2023-03-10T03:56:32.920Z,98604.37
2023-03-10T03:57:36.605Z,98596.59
2023-03-10T03:58:39.698Z,98594.81
2023-03-10T03:59:42.530Z,98593.70
2023-03-10T04:00:45.283Z,98589.73
2023-03-10T04:01:48.480Z,98591.27
2023-03-10T04:02:51.935Z,98596.09
2023-03-10T04:03:54.959Z,98598.63
2023-03-10T04:04:57.983Z,98599.55
2023-03-10T04:06:00.777Z,98602.98
2023-03-10T04:07:03.593Z,98592.34
2023-03-10T04:08:07.060Z,98587.38
2023-03-10T04:09:10.723Z,98580.27
2023-03-10T04:10:15.995Z,98580.70
2023-03-10T04:11:18.844Z,98586.80
2023-03-10T04:12:22.674Z,98584.08
2023-03-10T04:13:25.635Z,98581.34
2023-03-10T04:14:28.693Z,98579.19
2023-03-10T04:15:31.696Z,98573.05
2023-03-10T04:16:34.932Z,98567.90
2023-03-10T04:17:38.623Z,98562.70
2023-03-10T04:18:41.379Z,98567.72
2023-03-10T04:19:54.151Z,98569.33
2023-03-10T04:21:04.310Z,98566.22
2023-03-10T04:22:08.674Z,98566.00
2023-03-10T04:23:12.148Z,98561.71
2023-03-10T04:24:16.172Z,98556.19
2023-03-10T04:25:19.269Z,98561.14
2023-03-10T04:26:22.764Z,98560.55
2023-03-10T04:27:25.627Z,98558.82
2023-03-10T04:28:28.340Z,98568.16
2023-03-10T04:29:31.500Z,98572.31
2023-03-10T04:30:34.439Z,98569.50
2023-03-10T04:31:37.645Z,98567.92
2023-03-10T04:32:41.515Z,98575.56
2023-03-10T04:33:45.171Z,98571.27
2023-03-10T04:34:48.494Z,98564.45
2023-03-10T04:35:52.802Z,98560.19
2023-03-10T04:36:56.589Z,98564.63
2023-03-10T04:37:59.466Z,98552.45
2023-03-10T04:39:02.574Z,98548.80
2023-03-10T04:40:09.515Z,98545.50
2023-03-10T04:41:12.637Z,98549.98
2023-03-10T04:42:17.462Z,98540.97
2023-03-10T04:43:20.219Z,98539.90
2023-03-10T04:44:30.784Z,98538.02
2023-03-10T04:45:34.084Z,98542.52
2023-03-10T04:46:37.241Z,98539.05
2023-03-10T04:47:40.412Z,98535.85
2023-03-10T04:48:43.530Z,98525.53
2023-03-10T04:49:46.631Z,98521.84
2023-03-10T04:50:57.481Z,98523.64
2023-03-10T04:52:00.560Z,98527.89
2023-03-10T04:53:03.919Z,98523.71
2023-03-10T04:54:06.918Z,98517.21
2023-03-10T04:55:09.960Z,98515.48
2023-03-10T04:56:12.756Z,98512.61
2023-03-10T04:57:16.354Z,98519.06
2023-03-10T04:58:20.287Z,98520.80
2023-03-10T04:59:23.132Z,98518.42
2023-03-10T05:00:26.087Z,98515.23
2023-03-10T05:01:33.062Z,98512.34
2023-03-10T05:02:38.751Z,98510.70
2023-03-10T05:03:41.607Z,98504.23
2023-03-10T05:04:45.107Z,98496.41
2023-03-10T05:05:48.040Z,98494.49
2023-03-10T05:06:51.636Z,98491.38
2023-03-10T05:08:04.702Z,98491.11
2023-03-10T05:09:07.571Z,98486.72
2023-03-10T05:10:10.863Z,98475.32
2023-03-10T05:11:14.172Z,98471.83
2023-03-10T05:12:17.607Z,98463.35
2023-03-10T05:13:20.779Z,98458.09
2023-03-10T05:14:23.592Z,98456.25
2023-03-10T05:15:26.674Z,98452.41
2023-03-10T05:16:29.505Z,98452.55
2023-03-10T05:17:32.702Z,98461.98
2023-03-10T05:18:36.213Z,98466.66
2023-03-10T05:19:39.775Z,98467.55
2023-03-10T05:20:42.804Z,98475.11
2023-03-10T05:21:45.556Z,98477.25
2023-03-10T05:22:48.407Z,98481.20
2023-03-10T05:23:51.865Z,98476.27
2023-03-10T05:24:55.003Z,98474.52
2023-03-10T05:25:58.631Z,98474.70
2023-03-10T05:27:05.560Z,98461.30
2023-03-10T05:28:08.468Z,98463.36
2023-03-10T05:29:11.278Z,98470.48
2023-03-10T05:30:19.012Z,98467.09
2023-03-10T05:31:26.411Z,98471.11
2023-03-10T05:32:36.237Z,98468.20
2023-03-10T05:33:39.602Z,98459.98
2023-03-10T05:34:42.421Z,98451.98
2023-03-10T05:35:45.321Z,98454.51
2023-03-10T05:36:48.560Z,98447.02
2023-03-10T05:37:51.927Z,98445.02
2023-03-10T05:38:55.119Z,98443.92
2023-03-10T05:39:59.316Z,98440.82
2023-03-10T05:41:02.533Z,98432.50
2023-03-10T05:42:05.573Z,98436.08
2023-03-10T05:43:09.884Z,98435.41
2023-03-10T05:44:13.360Z,98428.70
2023-03-10T05:45:16.859Z,98432.48
2023-03-10T05:46:19.941Z,98436.51
2023-03-10T05:47:27.762Z,98442.33
2023-03-10T05:48:30.866Z,98442.27
2023-03-10T05:49:36.685Z,98440.21
2023-03-10T05:50:40.199Z,98435.08
2023-03-10T05:51:43.012Z,98434.05
2023-03-10T05:52:45.977Z,98433.66
2023-03-10T05:53:48.876Z,98441.72
2023-03-10T05:54:55.848Z,98447.42
2023-03-10T05:55:59.097Z,98443.09
2023-03-10T05:57:02.056Z,98447.59
2023-03-10T05:58:05.225Z,98438.91
2023-03-10T05:59:08.085Z,98439.08
2023-03-10T06:00:12.570Z,98434.59
2023-03-10T06:01:19.172Z,98432.17
2023-03-10T06:02:21.960Z,98432.66
2023-03-10T06:03:25.084Z,98429.39
2023-03-10T06:04:32.446Z,98438.62
2023-03-10T06:05:35.215Z,98436.71
2023-03-10T06:06:38.549Z,98421.37
2023-03-10T06:07:41.438Z,98426.77
2023-03-10T06:08:44.405Z,98416.58
2023-03-10T06:09:47.161Z,98424.19
2023-03-10T06:10:50.148Z,98419.52
2023-03-10T06:11:53.075Z,98421.77
2023-03-10T06:12:56.483Z,98418.18
2023-03-10T06:13:59.716Z,98417.04
2023-03-10T06:15:02.519Z,98408.73
2023-03-10T06:16:05.958Z,98412.55
2023-03-10T06:17:08.741Z,98417.47
2023-03-10T06:18:11.460Z,98415.95
2023-03-10T06:19:14.276Z,98416.98
2023-03-10T06:20:17.088Z,98417.75
2023-03-10T06:21:19.832Z,98418.29
2023-03-10T06:22:22.588Z,98420.00
2023-03-10T06:23:26.299Z,98413.80
2023-03-10T06:24:29.195Z,98418.30
2023-03-10T06:25:31.972Z,98414.86
2023-03-10T06:26:34.672Z,98417.03
2023-03-10T06:27:37.480Z,98416.48
2023-03-10T06:28:41.183Z,98420.93
2023-03-10T06:29:44.024Z,98414.56
2023-03-10T06:30:53.465Z,98412.77
2023-03-10T06:31:56.320Z,98407.55
2023-03-10T06:33:00.073Z,98401.95
2023-03-10T06:34:04.551Z,98398.84
2023-03-10T06:35:07.950Z,98395.60
2023-03-10T06:36:11.764Z,98392.75
2023-03-10T06:37:14.564Z,98392.17
2023-03-10T06:38:17.401Z,98396.48
2023-03-10T06:39:20.155Z,98396.27
2023-03-10T06:40:23.008Z,98401.14
2023-03-10T06:41:27.907Z,98400.89
2023-03-10T06:42:31.910Z,98399.96
2023-03-10T06:43:34.920Z,98404.40
2023-03-10T06:44:37.742Z,98399.70
2023-03-10T06:45:47.027Z,98392.55
2023-03-10T06:46:49.898Z,98385.14
2023-03-10T06:47:52.710Z,98383.69
2023-03-10T06:48:56.506Z,98385.12
2023-03-10T06:50:00.165Z,98381.95
2023-03-10T06:51:05.713Z,98381.65
2023-03-10T06:52:08.433Z,98381.39
2023-03-10T06:53:11.645Z,98380.90
2023-03-10T06:54:14.394Z,98378.50
2023-03-10T06:55:17.631Z,98372.04
2023-03-10T06:56:22.022Z,98371.36
2023-03-10T06:57:24.773Z,98371.63
2023-03-10T06:58:28.992Z,98367.08
2023-03-10T06:59:32.806Z,98371.48
2023-03-10T07:00:35.550Z,98369.02
2023-03-10T07:01:38.396Z,98370.24
2023-03-10T07:02:41.587Z,98366.17
2023-03-10T07:03:44.354Z,98367.76
2023-03-10T07:04:47.273Z,98365.36
2023-03-10T07:05:50.212Z,98365.39
2023-03-10T07:06:53.003Z,98367.64
2023-03-10T07:07:56.090Z,98363.50
2023-03-10T07:08:58.898Z,98362.44
2023-03-10T07:10:01.655Z,98363.81
2023-03-10T07:11:04.508Z,98360.89
2023-03-10T07:12:07.439Z,98360.20
2023-03-10T07:13:13.917Z,98360.21
2023-03-10T07:14:16.701Z,98359.10
2023-03-10T07:15:19.440Z,98356.18
2023-03-10T07:16:22.696Z,98355.23
2023-03-10T07:17:25.562Z,98341.88
2023-03-10T07:18:29.711Z,98344.65
2023-03-10T07:19:32.747Z,98348.33
2023-03-10T07:20:35.984Z,98350.23
2023-03-10T07:21:38.806Z,98343.23
2023-03-10T07:22:42.030Z,98346.93
2023-03-10T07:23:45.001Z,98346.27
2023-03-10T07:24:47.916Z,98341.16
2023-03-10T07:25:54.990Z,98349.55
2023-03-10T07:27:01.446Z,98354.84
2023-03-10T07:28:05.530Z,98348.70
2023-03-10T07:29:08.291Z,98350.05
2023-03-10T07:30:11.585Z,98350.55
2023-03-10T07:31:14.657Z,98347.90
2023-03-10T07:32:17.541Z,98344.77
2023-03-10T07:33:20.656Z,98346.88
2023-03-10T07:34:23.458Z,98350.28
2023-03-10T07:35:26.556Z,98349.98
2023-03-10T07:36:29.842Z,98346.64
2023-03-10T07:37:32.630Z,98347.16
2023-03-10T07:38:35.822Z,98339.30
2023-03-10T07:39:38.742Z,98332.54
2023-03-10T07:40:41.584Z,98337.00
2023-03-10T07:41:44.572Z,98327.63
2023-03-10T07:42:47.367Z,98321.83
2023-03-10T07:43:52.360Z,98323.89
2023-03-10T07:44:55.338Z,98330.94
2023-03-10T07:45:58.259Z,98317.77
2023-03-10T07:47:01.225Z,98313.48
2023-03-10T07:49:00.113Z,98322.73
2023-03-10T07:50:03.391Z,98324.98
2023-03-10T07:51:06.383Z,98325.27
2023-03-10T07:52:09.194Z,98324.25
2023-03-10T07:53:11.922Z,98320.95
2023-03-10T07:54:14.705Z,98317.76
2023-03-10T07:55:17.869Z,98317.61
2023-03-10T07:56:20.642Z,98311.23
2023-03-10T07:57:23.438Z,98308.82
2023-03-10T07:58:26.296Z,98308.09
2023-03-10T07:59:29.084Z,98305.33
2023-03-10T08:00:31.882Z,98301.95
2023-03-10T08:01:34.679Z,98301.23
2023-03-10T08:02:38.168Z,98301.45
2023-03-10T08:03:41.170Z,98302.08
2023-03-10T08:04:44.117Z,98300.39
2023-03-10T08:05:47.648Z,98295.06
2023-03-10T08:06:50.409Z,98293.04
2023-03-10T08:07:53.172Z,98291.41
2023-03-10T08:08:56.155Z,98293.44
2023-03-10T08:09:59.034Z,98293.48
2023-03-10T08:11:06.379Z,98292.52
2023-03-10T08:12:09.328Z,98297.85
2023-03-10T08:13:12.392Z,98299.20
2023-03-10T08:14:16.091Z,98297.73
2023-03-10T08:15:19.017Z,98297.86
2023-03-10T08:16:22.619Z,98306.66
2023-03-10T08:17:30.740Z,98296.79
2023-03-10T08:18:33.541Z,98295.93
2023-03-10T08:19:37.899Z,98301.42
2023-03-10T08:20:40.819Z,98300.70
2023-03-10T08:21:43.841Z,98298.08
2023-03-10T08:22:46.615Z,98296.41
2023-03-10T08:23:49.500Z,98298.43
2023-03-10T08:24:52.556Z,98297.80
2023-03-10T08:25:55.321Z,98299.66
2023-03-10T08:26:58.359Z,98295.66
2023-03-10T08:28:01.718Z,98297.08
2023-03-10T08:29:04.464Z,98293.52
2023-03-10T08:30:07.609Z,98290.59
2023-03-10T08:31:12.117Z,98283.13
2023-03-10T08:32:14.965Z,98276.82
2023-03-10T08:33:17.854Z,98278.74
2023-03-10T08:34:20.652Z,98273.98
2023-03-10T08:35:23.403Z,98273.09
2023-03-10T08:36:28.372Z,98269.14
2023-03-10T08:37:31.368Z,98266.29
2023-03-10T08:38:34.470Z,98268.39
2023-03-10T08:39:37.793Z,98268.45
2023-03-10T08:40:40.595Z,98270.70
2023-03-10T08:41:49.159Z,98272.29
2023-03-10T08:42:52.383Z,98275.90
2023-03-10T08:43:56.640Z,98285.41
2023-03-10T08:44:59.545Z,98281.24
2023-03-10T08:46:02.581Z,98287.30
2023-03-10T08:47:05.602Z,98287.58
2023-03-10T08:48:08.495Z,98282.29
2023-03-10T08:49:11.652Z,98273.35
2023-03-10T08:50:14.591Z,98271.89
2023-03-10T08:51:18.442Z,98271.70
2023-03-10T08:52:21.192Z,98268.07
2023-03-10T08:53:24.276Z,98273.75
2023-03-10T08:54:27.379Z,98272.73
2023-03-10T08:55:30.202Z,98265.47
2023-03-10T08:56:33.064Z,98261.73
2023-03-10T08:57:35.845Z,98260.02
2023-03-10T08:58:38.921Z,98257.63
2023-03-10T08:59:41.992Z,98255.16
2023-03-10T09:00:45.073Z,98257.26
2023-03-10T09:01:47.973Z,98255.37
2023-03-10T09:02:50.869Z,98252.97
2023-03-10T09:03:53.714Z,98250.49
2023-03-10T09:04:56.493Z,98241.84
2023-03-10T09:05:59.308Z,98244.09
2023-03-10T09:07:02.101Z,98245.79
2023-03-10T09:08:05.013Z,98241.08
2023-03-10T09:09:08.520Z,98238.14
2023-03-10T09:10:11.392Z,98241.73
2023-03-10T09:11:19.649Z,98232.88
2023-03-10T09:12:22.478Z,98235.92
2023-03-10T09:13:25.260Z,98227.11
2023-03-10T09:14:28.011Z,98228.45
2023-03-10T09:15:30.907Z,98235.63
2023-03-10T09:16:34.217Z,98234.39
2023-03-10T09:17:39.486Z,98225.04
2023-03-10T09:18:43.622Z,98230.71
2023-03-10T09:19:46.463Z,98237.15
2023-03-10T09:20:49.743Z,98231.47
2023-03-10T09:21:52.505Z,98225.96
2023-03-10T09:22:55.726Z,98224.05
2023-03-10T09:23:58.785Z,98211.05
2023-03-10T09:25:01.583Z,98213.41
2023-03-10T09:26:04.369Z,98204.33
2023-03-10T09:27:07.665Z,98213.85
2023-03-10T09:28:11.783Z,98208.34
2023-03-10T09:29:14.673Z,98204.71
2023-03-10T09:30:17.841Z,98207.16
2023-03-10T09:31:23.121Z,98195.69
2023-03-10T09:32:26.128Z,98198.75
2023-03-10T09:33:28.970Z,98197.68
2023-03-10T09:34:31.880Z,98200.08
2023-03-10T09:35:35.977Z,98199.76
2023-03-10T09:36:40.307Z,98198.96
2023-03-10T09:37:43.074Z,98203.73
2023-03-10T09:38:45.860Z,98204.85
2023-03-10T09:39:48.629Z,98210.66
2023-03-10T09:40:56.699Z,98212.28
2023-03-10T09:42:11.913Z,98215.08
2023-03-10T09:43:16.271Z,98214.92
2023-03-10T09:44:19.215Z,98212.89
2023-03-10T09:45:47.350Z,98211.60
2023-03-10T09:47:05.937Z,98215.08
2023-03-10T09:48:12.902Z,98215.94
2023-03-10T09:49:18.332Z,98214.49
2023-03-10T09:50:27.224Z,98210.91
2023-03-10T09:51:29.987Z,98206.64
2023-03-10T09:52:44.278Z,98205.58
2023-03-10T09:54:06.579Z,98205.21
2023-03-10T09:55:19.422Z,98205.91
2023-03-10T09:56:29.915Z,98208.15
2023-03-10T09:57:33.555Z,98197.61
2023-03-10T09:58:39.480Z,98197.82
2023-03-10T09:59:43.422Z,98200.38
2023-03-10T10:00:46.285Z,98193.59
2023-03-10T10:01:50.557Z,98195.16
2023-03-10T10:03:00.100Z,98196.50
2023-03-10T10:04:08.228Z,98187.66
2023-03-10T10:05:17.180Z,98178.99
2023-03-10T10:06:27.965Z,98179.28
2023-03-10T10:07:40.792Z,98178.67
2023-03-10T10:08:54.708Z,98181.31
2023-03-10T10:10:05.956Z,98174.08
2023-03-10T10:11:13.944Z,98165.95
2023-03-10T10:12:25.033Z,98164.84
2023-03-10T10:13:29.971Z,98164.34
2023-03-10T10:14:33.330Z,98175.31
2023-03-10T10:15:38.089Z,98170.02
2023-03-10T10:16:40.866Z,98161.08
2023-03-10T10:18:08.612Z,98159.30
2023-03-10T10:19:22.470Z,98151.42
2023-03-10T10:20:32.457Z,98152.60
2023-03-10T10:21:52.648Z,98159.81
2023-03-10T10:22:55.440Z,98155.69
2023-03-10T10:23:59.409Z,98152.31
2023-03-10T10:25:08.497Z,98145.50
2023-03-10T10:26:13.676Z,98151.75
2023-03-10T10:27:18.739Z,98146.98
2023-03-10T10:28:29.191Z,98151.70
2023-03-10T10:29:38.997Z,98143.33
2023-03-10T10:30:41.880Z,98144.92
2023-03-10T10:32:02.036Z,98140.02
2023-03-10T10:33:09.536Z,98141.80
2023-03-10T10:34:22.252Z,98132.08
2023-03-10T10:35:26.314Z,98137.25
2023-03-10T10:36:33.014Z,98141.73
2023-03-10T10:37:40.184Z,98137.58
2023-03-10T10:38:48.463Z,98138.52
2023-03-10T10:39:52.868Z,98138.61
2023-03-10T10:41:05.785Z,98145.61
2023-03-10T10:42:18.985Z,98145.45
2023-03-10T10:43:22.313Z,98137.98
2023-03-10T10:44:25.069Z,98142.66
2023-03-10T10:45:30.426Z,98138.40
2023-03-10T10:46:33.485Z,98133.96
2023-03-10T10:47:49.945Z,98133.70
2023-03-10T10:49:03.670Z,98135.33
2023-03-10T10:50:26.411Z,98137.52
2023-03-10T10:51:30.395Z,98134.91
2023-03-10T10:52:33.625Z,98136.54
2023-03-10T10:53:42.823Z,98132.99
2023-03-10T10:54:51.989Z,98126.03
2023-03-10T10:56:06.127Z,98121.54
2023-03-10T10:57:20.103Z,98117.31
2023-03-10T10:58:28.701Z,98118.56
2023-03-10T10:59:35.701Z,98112.36
2023-03-10T11:00:38.836Z,98114.52
2023-03-10T11:01:54.987Z,98108.61
2023-03-10T11:02:58.341Z,98103.67
2023-03-10T11:04:06.328Z,98110.14
2023-03-10T11:05:15.185Z,98103.06
2023-03-10T11:06:27.217Z,98105.70
2023-03-10T11:07:29.980Z,98107.60
2023-03-10T11:08:37.501Z,98102.30
2023-03-10T11:09:40.322Z,98101.82
2023-03-10T11:10:44.169Z,98102.11
2023-03-10T11:12:02.119Z,98098.67
2023-03-10T11:13:16.487Z,98101.75
2023-03-10T11:14:19.603Z,98096.48
2023-03-10T11:15:31.026Z,98093.91
2023-03-10T11:16:34.317Z,98096.80
2023-03-10T11:17:56.161Z,98089.06
2023-03-10T11:19:19.202Z,98087.29
2023-03-10T11:20:41.066Z,98087.02
2023-03-10T11:21:51.013Z,98083.52
2023-03-10T11:22:57.182Z,98083.41
2023-03-10T11:24:08.850Z,98080.74
2023-03-10T11:25:19.231Z,98077.96
2023-03-10T11:26:22.259Z,98076.04
2023-03-10T11:27:43.650Z,98077.95
2023-03-10T11:28:46.673Z,98067.73
2023-03-10T11:29:49.497Z,98065.23
2023-03-10T11:30:58.427Z,98071.05
2023-03-10T11:32:01.233Z,98069.66
2023-03-10T11:33:20.879Z,98064.10
2023-03-10T11:34:31.588Z,98066.29
2023-03-10T11:35:47.686Z,98069.19
2023-03-10T11:37:14.444Z,98062.10
2023-03-10T11:38:21.369Z,98067.42
2023-03-10T11:39:43.839Z,98073.90
2023-03-10T11:40:58.602Z,98062.20
2023-03-10T11:42:06.622Z,98057.96
2023-03-10T11:43:27.891Z,98065.89
2023-03-10T11:44:57.814Z,98059.38
2023-03-10T11:46:03.758Z,98050.18
2023-03-10T11:47:13.836Z,98050.46
2023-03-10T11:48:48.924Z,98052.69
2023-03-10T11:49:57.801Z,98043.34
2023-03-10T11:51:03.785Z,98041.92
2023-03-10T11:52:18.865Z,98046.55
2023-03-10T11:53:30.351Z,98037.15
2023-03-10T11:54:51.578Z,98049.33
2023-03-10T11:55:55.184Z,98042.27
2023-03-10T11:56:58.376Z,98039.02
2023-03-10T11:58:03.478Z,98045.13
2023-03-10T11:59:10.078Z,98044.17
2023-03-10T12:00:18.419Z,98042.11
2023-03-10T12:01:28.402Z,98052.36
2023-03-10T12:02:39.598Z,98048.80
2023-03-10T12:03:48.550Z,98043.84
2023-03-10T12:04:54.932Z,98046.77
2023-03-10T12:05:58.988Z,98052.21
2023-03-10T12:07:11.062Z,98038.71
2023-03-10T12:08:15.749Z,98045.14
2023-03-10T12:09:28.505Z,98048.44
2023-03-10T12:10:33.804Z,98042.34
2023-03-10T12:11:36.803Z,98054.48
2023-03-10T12:12:41.456Z,98046.52
2023-03-10T12:13:49.291Z,98034.91
2023-03-10T12:14:52.822Z,98037.84
2023-03-10T12:16:02.380Z,98039.38
2023-03-10T12:17:05.609Z,98043.14
2023-03-10T12:18:08.534Z,98044.36
2023-03-10T12:19:11.434Z,98039.62
2023-03-10T12:20:14.148Z,98044.17
2023-03-10T12:21:27.411Z,98042.27
2023-03-10T12:22:39.583Z,98038.73
2023-03-10T12:23:43.911Z,98032.59
2023-03-10T12:24:47.586Z,98038.93
2023-03-10T12:25:53.474Z,98037.11
2023-03-10T12:27:03.485Z,98036.00
2023-03-10T12:28:12.068Z,98034.08
2023-03-10T12:29:32.089Z,98034.94
2023-03-10T12:30:58.175Z,98036.77
2023-03-10T12:32:01.151Z,98039.30
2023-03-10T12:33:03.993Z,98047.92
2023-03-10T12:34:25.031Z,98043.82
2023-03-10T12:35:50.884Z,98042.29
2023-03-10T12:36:55.040Z,98037.61
2023-03-10T12:38:16.257Z,98045.87
2023-03-10T12:39:28.071Z,98031.99
2023-03-10T12:41:03.408Z,98026.70
2023-03-10T12:42:26.803Z,98028.96
2023-03-10T12:43:38.673Z,98024.51
2023-03-10T12:44:49.886Z,98022.67
2023-03-10T12:45:52.802Z,98023.89
2023-03-10T12:46:55.604Z,98026.70
2023-03-10T12:48:01.894Z,98022.79
2023-03-10T12:49:22.223Z,98018.87
2023-03-10T12:50:30.920Z,98020.08
2023-03-10T12:51:36.966Z,98020.23